Terminal Aerodrome Forecast
Issued by NWS

Home | Current Version | Previous Version | Text Only | Print | Product List | Glossary On
Versions: 1 2 3 4 5 6 7 8 9 10 11 12 13 14
000
FTUS41 KPBZ 260520
TAFBVI
TAF
KBVI 260520Z 2606/2706 23004KT P6SM SCT060
     FM261900 22005KT P6SM VCTS BKN040CB
     FM270200 VRB02KT P6SM BKN070
      AMD NOT SKED=

USA.gov is the U.S. government's official web portal to all federal, state and local government web resources and services.